sensor_id;sensor_type;location;lat;lon;timestamp;P1;durP1;ratioP1;P2;durP2;ratioP2
10479;SDS011;12789;42.610;23.040;2023-03-24T00:02:16;60.80;;;28.70;;
10479;SDS011;12789;42.610;23.040;2023-03-24T00:04:46;48.63;;;26.47;;
10479;SDS011;12789;42.610;23.040;2023-03-24T00:07:13;60.13;;;29.83;;
10479;SDS011;12789;42.610;23.040;2023-03-24T00:09:40;55.90;;;29.40;;
10479;SDS011;12789;42.610;23.040;2023-03-24T00:12:07;56.93;;;32.83;;
10479;SDS011;12789;42.610;23.040;2023-03-24T00:14:34;71.70;;;33.37;;
10479;SDS011;12789;42.610;23.040;2023-03-24T00:17:03;59.80;;;30.17;;
10479;SDS011;12789;42.610;23.040;2023-03-24T00:19:29;49.47;;;27.60;;
10479;SDS011;12789;42.610;23.040;2023-03-24T00:21:59;50.93;;;27.73;;
10479;SDS011;12789;42.610;23.040;2023-03-24T00:24:26;45.23;;;25.50;;
10479;SDS011;12789;42.610;23.040;2023-03-24T00:26:53;50.40;;;25.47;;
10479;SDS011;12789;42.610;23.040;2023-03-24T00:29:22;51.97;;;25.67;;
10479;SDS011;12789;42.610;23.040;2023-03-24T00:31:49;43.00;;;25.13;;
10479;SDS011;12789;42.610;23.040;2023-03-24T00:34:17;49.13;;;25.37;;
10479;SDS011;12789;42.610;23.040;2023-03-24T00:36:46;43.63;;;24.20;;
10479;SDS011;12789;42.610;23.040;2023-03-24T00:39:14;45.83;;;25.43;;
10479;SDS011;12789;42.610;23.040;2023-03-24T00:41:42;51.97;;;24.77;;
10479;SDS011;12789;42.610;23.040;2023-03-24T00:44:09;45.00;;;24.20;;
10479;SDS011;12789;42.610;23.040;2023-03-24T00:46:42;41.00;;;23.73;;
10479;SDS011;12789;42.610;23.040;2023-03-24T00:49:10;41.97;;;23.37;;
10479;SDS011;12789;42.610;23.040;2023-03-24T00:51:37;36.97;;;21.97;;
10479;SDS011;12789;42.610;23.040;2023-03-24T00:54:05;39.23;;;22.60;;
10479;SDS011;12789;42.610;23.040;2023-03-24T00:56:34;37.00;;;22.23;;
10479;SDS011;12789;42.610;23.040;2023-03-24T00:59:02;39.83;;;21.83;;
10479;SDS011;12789;42.610;23.040;2023-03-24T01:01:29;41.93;;;23.57;;
10479;SDS011;12789;42.610;23.040;2023-03-24T01:03:57;45.27;;;23.20;;
10479;SDS011;12789;42.610;23.040;2023-03-24T01:06:25;47.23;;;25.67;;
10479;SDS011;12789;42.610;23.040;2023-03-24T01:08:54;48.00;;;26.23;;
10479;SDS011;12789;42.610;23.040;2023-03-24T01:11:21;54.00;;;27.20;;
10479;SDS011;12789;42.610;23.040;2023-03-24T01:13:50;52.47;;;27.70;;
10479;SDS011;12789;42.610;23.040;2023-03-24T01:16:18;53.43;;;29.30;;
10479;SDS011;12789;42.610;23.040;2023-03-24T01:18:49;61.53;;;30.80;;
10479;SDS011;12789;42.610;23.040;2023-03-24T01:21:19;59.10;;;32.20;;
10479;SDS011;12789;42.610;23.040;2023-03-24T01:23:49;55.67;;;32.10;;
10479;SDS011;12789;42.610;23.040;2023-03-24T01:26:22;57.13;;;33.20;;
10479;SDS011;12789;42.610;23.040;2023-03-24T01:29:00;59.73;;;34.37;;
10479;SDS011;12789;42.610;23.040;2023-03-24T01:31:29;61.23;;;35.33;;
10479;SDS011;12789;42.610;23.040;2023-03-24T01:34:05;62.47;;;34.70;;
10479;SDS011;12789;42.610;23.040;2023-03-24T01:36:34;59.77;;;33.67;;
10479;SDS011;12789;42.610;23.040;2023-03-24T01:39:05;68.30;;;35.87;;
10479;SDS011;12789;42.610;23.040;2023-03-24T01:41:36;65.40;;;34.67;;
10479;SDS011;12789;42.610;23.040;2023-03-24T01:46:53;73.47;;;35.83;;
10479;SDS011;12789;42.610;23.040;2023-03-24T01:49:20;63.03;;;33.37;;
10479;SDS011;12789;42.610;23.040;2023-03-24T01:51:51;66.40;;;34.53;;
10479;SDS011;12789;42.610;23.040;2023-03-24T01:54:19;66.10;;;34.03;;
10479;SDS011;12789;42.610;23.040;2023-03-24T01:56:50;66.80;;;33.87;;
10479;SDS011;12789;42.610;23.040;2023-03-24T01:59:25;63.70;;;33.13;;
10479;SDS011;12789;42.610;23.040;2023-03-24T02:01:54;61.83;;;29.60;;
10479;SDS011;12789;42.610;23.040;2023-03-24T02:04:29;47.37;;;25.40;;
10479;SDS011;12789;42.610;23.040;2023-03-24T02:06:59;43.67;;;22.53;;
10479;SDS011;12789;42.610;23.040;2023-03-24T02:09:31;42.13;;;22.73;;
10479;SDS011;12789;42.610;23.040;2023-03-24T02:11:58;36.00;;;21.40;;
10479;SDS011;12789;42.610;23.040;2023-03-24T02:14:37;34.33;;;21.07;;
10479;SDS011;12789;42.610;23.040;2023-03-24T02:17:09;34.97;;;20.13;;
10479;SDS011;12789;42.610;23.040;2023-03-24T02:19:49;31.80;;;19.43;;
10479;SDS011;12789;42.610;23.040;2023-03-24T02:22:46;32.13;;;19.77;;
10479;SDS011;12789;42.610;23.040;2023-03-24T02:28:13;35.20;;;19.07;;
10479;SDS011;12789;42.610;23.040;2023-03-24T02:33:50;34.97;;;18.90;;
10479;SDS011;12789;42.610;23.040;2023-03-24T02:36:35;36.43;;;19.90;;
10479;SDS011;12789;42.610;23.040;2023-03-24T02:42:10;34.13;;;20.67;;
10479;SDS011;12789;42.610;23.040;2023-03-24T02:44:49;43.33;;;22.00;;
10479;SDS011;12789;42.610;23.040;2023-03-24T02:47:23;43.30;;;24.77;;
10479;SDS011;12789;42.610;23.040;2023-03-24T02:49:52;43.50;;;24.63;;
10479;SDS011;12789;42.610;23.040;2023-03-24T02:52:23;48.47;;;25.20;;
10479;SDS011;12789;42.610;23.040;2023-03-24T02:54:58;49.63;;;28.23;;
10479;SDS011;12789;42.610;23.040;2023-03-24T02:57:29;46.70;;;27.97;;
10479;SDS011;12789;42.610;23.040;2023-03-24T02:59:59;40.83;;;26.03;;
10479;SDS011;12789;42.610;23.040;2023-03-24T03:02:30;50.70;;;27.40;;
10479;SDS011;12789;42.610;23.040;2023-03-24T03:04:59;44.57;;;26.60;;
10479;SDS011;12789;42.610;23.040;2023-03-24T03:07:29;52.93;;;26.90;;
10479;SDS011;12789;42.610;23.040;2023-03-24T03:09:59;52.93;;;25.37;;
10479;SDS011;12789;42.610;23.040;2023-03-24T03:12:34;45.27;;;26.67;;
10479;SDS011;12789;42.610;23.040;2023-03-24T03:15:03;68.90;;;37.23;;
10479;SDS011;12789;42.610;23.040;2023-03-24T03:17:32;74.13;;;37.90;;
10479;SDS011;12789;42.610;23.040;2023-03-24T03:20:03;68.53;;;37.23;;
10479;SDS011;12789;42.610;23.040;2023-03-24T03:22:38;69.27;;;33.80;;
10479;SDS011;12789;42.610;23.040;2023-03-24T03:25:08;46.57;;;25.70;;
10479;SDS011;12789;42.610;23.040;2023-03-24T03:27:37;45.10;;;25.20;;
10479;SDS011;12789;42.610;23.040;2023-03-24T03:30:09;56.00;;;25.53;;
10479;SDS011;12789;42.610;23.040;2023-03-24T03:32:46;57.43;;;35.80;;
10479;SDS011;12789;42.610;23.040;2023-03-24T03:35:24;73.63;;;41.07;;
10479;SDS011;12789;42.610;23.040;2023-03-24T03:37:56;70.40;;;42.23;;
10479;SDS011;12789;42.610;23.040;2023-03-24T03:40:26;58.73;;;35.80;;
10479;SDS011;12789;42.610;23.040;2023-03-24T03:42:57;47.47;;;28.30;;
10479;SDS011;12789;42.610;23.040;2023-03-24T03:45:24;47.80;;;25.13;;
10479;SDS011;12789;42.610;23.040;2023-03-24T03:47:53;38.40;;;22.97;;
10479;SDS011;12789;42.610;23.040;2023-03-24T03:50:22;39.50;;;23.10;;
10479;SDS011;12789;42.610;23.040;2023-03-24T03:52:53;47.37;;;23.80;;
10479;SDS011;12789;42.610;23.040;2023-03-24T03:55:19;39.97;;;24.27;;
10479;SDS011;12789;42.610;23.040;2023-03-24T03:57:46;46.73;;;23.37;;
10479;SDS011;12789;42.610;23.040;2023-03-24T04:00:15;41.63;;;22.33;;
10479;SDS011;12789;42.610;23.040;2023-03-24T04:02:48;47.50;;;25.77;;
10479;SDS011;12789;42.610;23.040;2023-03-24T04:05:22;48.37;;;26.53;;
10479;SDS011;12789;42.610;23.040;2023-03-24T04:08:05;54.77;;;26.40;;
10479;SDS011;12789;42.610;23.040;2023-03-24T04:10:44;44.90;;;26.17;;
10479;SDS011;12789;42.610;23.040;2023-03-24T04:13:15;49.90;;;26.27;;
10479;SDS011;12789;42.610;23.040;2023-03-24T04:21:12;44.83;;;26.10;;
10479;SDS011;12789;42.610;23.040;2023-03-24T04:23:44;50.20;;;26.63;;
10479;SDS011;12789;42.610;23.040;2023-03-24T04:26:16;51.57;;;27.27;;
10479;SDS011;12789;42.610;23.040;2023-03-24T04:28:54;51.90;;;27.07;;
10479;SDS011;12789;42.610;23.040;2023-03-24T04:31:25;52.10;;;26.77;;
10479;SDS011;12789;42.610;23.040;2023-03-24T04:33:56;50.70;;;26.77;;
10479;SDS011;12789;42.610;23.040;2023-03-24T04:36:32;53.47;;;27.23;;
10479;SDS011;12789;42.610;23.040;2023-03-24T04:39:07;50.60;;;27.00;;
10479;SDS011;12789;42.610;23.040;2023-03-24T04:41:34;49.30;;;24.97;;
10479;SDS011;12789;42.610;23.040;2023-03-24T04:44:12;60.40;;;26.73;;
10479;SDS011;12789;42.610;23.040;2023-03-24T04:46:46;59.47;;;27.70;;
10479;SDS011;12789;42.610;23.040;2023-03-24T04:49:13;60.30;;;29.73;;
10479;SDS011;12789;42.610;23.040;2023-03-24T04:51:42;61.13;;;29.50;;
10479;SDS011;12789;42.610;23.040;2023-03-24T04:54:10;58.17;;;31.83;;
10479;SDS011;12789;42.610;23.040;2023-03-24T04:56:38;58.40;;;29.90;;
10479;SDS011;12789;42.610;23.040;2023-03-24T04:59:36;74.27;;;31.67;;
10479;SDS011;12789;42.610;23.040;2023-03-24T05:02:03;65.53;;;33.20;;
10479;SDS011;12789;42.610;23.040;2023-03-24T05:04:29;70.93;;;36.40;;
10479;SDS011;12789;42.610;23.040;2023-03-24T05:07:02;67.67;;;35.67;;
10479;SDS011;12789;42.610;23.040;2023-03-24T05:09:29;72.20;;;37.10;;
10479;SDS011;12789;42.610;23.040;2023-03-24T05:12:00;87.50;;;52.93;;
10479;SDS011;12789;42.610;23.040;2023-03-24T05:14:27;130.03;;;76.67;;
10479;SDS011;12789;42.610;23.040;2023-03-24T05:16:57;76.70;;;41.53;;
10479;SDS011;12789;42.610;23.040;2023-03-24T05:19:30;73.40;;;38.20;;
10479;SDS011;12789;42.610;23.040;2023-03-24T05:21:57;72.17;;;39.53;;
10479;SDS011;12789;42.610;23.040;2023-03-24T05:24:27;69.53;;;41.50;;
10479;SDS011;12789;42.610;23.040;2023-03-24T05:26:53;67.17;;;38.07;;
10479;SDS011;12789;42.610;23.040;2023-03-24T05:29:20;61.37;;;35.40;;
10479;SDS011;12789;42.610;23.040;2023-03-24T05:31:47;62.90;;;35.03;;
10479;SDS011;12789;42.610;23.040;2023-03-24T05:34:13;64.80;;;34.67;;
10479;SDS011;12789;42.610;23.040;2023-03-24T05:36:40;66.17;;;34.70;;
10479;SDS011;12789;42.610;23.040;2023-03-24T05:39:06;62.50;;;34.90;;
10479;SDS011;12789;42.610;23.040;2023-03-24T05:41:34;57.70;;;33.63;;
10479;SDS011;12789;42.610;23.040;2023-03-24T05:44:01;70.47;;;35.67;;
10479;SDS011;12789;42.610;23.040;2023-03-24T05:46:27;64.17;;;36.33;;
10479;SDS011;12789;42.610;23.040;2023-03-24T05:48:54;62.10;;;34.57;;
10479;SDS011;12789;42.610;23.040;2023-03-24T05:51:20;55.13;;;30.10;;
10479;SDS011;12789;42.610;23.040;2023-03-24T05:53:47;78.60;;;42.27;;
10479;SDS011;12789;42.610;23.040;2023-03-24T05:56:13;61.57;;;36.30;;
10479;SDS011;12789;42.610;23.040;2023-03-24T05:58:41;144.97;;;81.70;;
10479;SDS011;12789;42.610;23.040;2023-03-24T06:01:09;88.10;;;44.40;;
10479;SDS011;12789;42.610;23.040;2023-03-24T06:03:36;74.40;;;42.27;;
10479;SDS011;12789;42.610;23.040;2023-03-24T06:06:05;76.67;;;41.80;;
10479;SDS011;12789;42.610;23.040;2023-03-24T06:08:32;76.20;;;40.87;;
10479;SDS011;12789;42.610;23.040;2023-03-24T06:10:59;75.00;;;41.10;;
10479;SDS011;12789;42.610;23.040;2023-03-24T06:13:26;79.60;;;42.17;;
10479;SDS011;12789;42.610;23.040;2023-03-24T06:15:54;74.97;;;41.63;;
10479;SDS011;12789;42.610;23.040;2023-03-24T06:18:22;74.07;;;39.37;;
10479;SDS011;12789;42.610;23.040;2023-03-24T06:20:50;67.90;;;35.93;;
10479;SDS011;12789;42.610;23.040;2023-03-24T06:23:20;66.97;;;33.43;;
10479;SDS011;12789;42.610;23.040;2023-03-24T06:25:48;52.33;;;30.47;;
10479;SDS011;12789;42.610;23.040;2023-03-24T06:28:15;54.97;;;29.73;;
10479;SDS011;12789;42.610;23.040;2023-03-24T06:30:42;57.53;;;28.00;;
10479;SDS011;12789;42.610;23.040;2023-03-24T06:33:10;50.13;;;28.10;;
10479;SDS011;12789;42.610;23.040;2023-03-24T06:35:36;52.67;;;28.20;;
10479;SDS011;12789;42.610;23.040;2023-03-24T06:38:03;50.93;;;28.60;;
10479;SDS011;12789;42.610;23.040;2023-03-24T06:40:29;47.60;;;26.93;;
10479;SDS011;12789;42.610;23.040;2023-03-24T06:42:56;45.77;;;25.70;;
10479;SDS011;12789;42.610;23.040;2023-03-24T06:45:22;51.10;;;24.50;;
10479;SDS011;12789;42.610;23.040;2023-03-24T06:47:50;49.93;;;26.50;;
10479;SDS011;12789;42.610;23.040;2023-03-24T06:50:21;48.97;;;25.27;;
10479;SDS011;12789;42.610;23.040;2023-03-24T06:52:50;43.63;;;26.57;;
10479;SDS011;12789;42.610;23.040;2023-03-24T06:55:17;43.80;;;25.63;;
10479;SDS011;12789;42.610;23.040;2023-03-24T06:57:44;58.03;;;26.10;;
10479;SDS011;12789;42.610;23.040;2023-03-24T07:00:10;44.17;;;24.27;;
10479;SDS011;12789;42.610;23.040;2023-03-24T07:02:37;56.13;;;25.10;;
10479;SDS011;12789;42.610;23.040;2023-03-24T07:05:04;48.63;;;25.97;;
10479;SDS011;12789;42.610;23.040;2023-03-24T07:07:34;45.17;;;24.20;;
10479;SDS011;12789;42.610;23.040;2023-03-24T07:10:01;43.97;;;26.83;;
10479;SDS011;12789;42.610;23.040;2023-03-24T07:12:27;59.77;;;28.90;;
10479;SDS011;12789;42.610;23.040;2023-03-24T07:14:55;52.13;;;25.70;;
10479;SDS011;12789;42.610;23.040;2023-03-24T07:17:22;48.23;;;25.43;;
10479;SDS011;12789;42.610;23.040;2023-03-24T07:19:48;47.47;;;24.77;;
10479;SDS011;12789;42.610;23.040;2023-03-24T07:22:15;50.43;;;24.90;;
10479;SDS011;12789;42.610;23.040;2023-03-24T07:24:43;46.50;;;23.10;;
10479;SDS011;12789;42.610;23.040;2023-03-24T07:27:09;45.40;;;22.73;;
10479;SDS011;12789;42.610;23.040;2023-03-24T07:29:36;50.83;;;21.87;;
10479;SDS011;12789;42.610;23.040;2023-03-24T07:32:02;45.13;;;20.17;;
10479;SDS011;12789;42.610;23.040;2023-03-24T07:34:29;37.67;;;17.77;;
10479;SDS011;12789;42.610;23.040;2023-03-24T07:36:56;29.07;;;16.67;;
10479;SDS011;12789;42.610;23.040;2023-03-24T07:39:22;39.50;;;16.80;;
10479;SDS011;12789;42.610;23.040;2023-03-24T07:41:50;33.47;;;15.83;;
10479;SDS011;12789;42.610;23.040;2023-03-24T07:44:17;36.70;;;15.60;;
10479;SDS011;12789;42.610;23.040;2023-03-24T07:46:44;37.83;;;15.77;;
10479;SDS011;12789;42.610;23.040;2023-03-24T07:49:11;35.83;;;16.30;;
10479;SDS011;12789;42.610;23.040;2023-03-24T07:51:37;31.30;;;14.97;;
10479;SDS011;12789;42.610;23.040;2023-03-24T07:54:04;35.33;;;14.80;;
10479;SDS011;12789;42.610;23.040;2023-03-24T07:56:30;34.30;;;14.23;;
10479;SDS011;12789;42.610;23.040;2023-03-24T07:58:58;30.53;;;14.60;;
10479;SDS011;12789;42.610;23.040;2023-03-24T08:01:25;45.37;;;15.13;;
10479;SDS011;12789;42.610;23.040;2023-03-24T08:03:52;31.30;;;14.93;;
10479;SDS011;12789;42.610;23.040;2023-03-24T08:06:22;32.27;;;15.13;;
10479;SDS011;12789;42.610;23.040;2023-03-24T08:08:48;28.60;;;15.13;;
10479;SDS011;12789;42.610;23.040;2023-03-24T08:11:15;29.07;;;15.00;;
10479;SDS011;12789;42.610;23.040;2023-03-24T08:13:53;32.40;;;14.50;;
10479;SDS011;12789;42.610;23.040;2023-03-24T08:16:24;24.87;;;13.47;;
10479;SDS011;12789;42.610;23.040;2023-03-24T08:18:53;25.20;;;13.50;;
10479;SDS011;12789;42.610;23.040;2023-03-24T08:21:23;31.37;;;14.50;;
10479;SDS011;12789;42.610;23.040;2023-03-24T08:23:50;24.83;;;12.87;;
10479;SDS011;12789;42.610;23.040;2023-03-24T08:26:18;24.70;;;12.67;;
10479;SDS011;12789;42.610;23.040;2023-03-24T08:28:47;26.87;;;13.67;;
10479;SDS011;12789;42.610;23.040;2023-03-24T08:31:14;27.00;;;12.63;;
10479;SDS011;12789;42.610;23.040;2023-03-24T08:33:42;25.63;;;12.40;;
10479;SDS011;12789;42.610;23.040;2023-03-24T08:36:11;26.55;;;11.45;;
10479;SDS011;12789;42.610;23.040;2023-03-24T08:38:38;26.83;;;11.80;;
10479;SDS011;12789;42.610;23.040;2023-03-24T08:41:05;22.08;;;11.90;;
10479;SDS011;12789;42.610;23.040;2023-03-24T08:43:33;22.90;;;11.68;;
10479;SDS011;12789;42.610;23.040;2023-03-24T08:46:00;20.17;;;11.57;;
10479;SDS011;12789;42.610;23.040;2023-03-24T08:48:34;22.83;;;11.32;;
10479;SDS011;12789;42.610;23.040;2023-03-24T08:51:10;23.30;;;11.20;;
10479;SDS011;12789;42.610;23.040;2023-03-24T08:53:44;19.60;;;11.50;;
10479;SDS011;12789;42.610;23.040;2023-03-24T08:56:10;22.20;;;11.23;;
10479;SDS011;12789;42.610;23.040;2023-03-24T08:58:37;25.75;;;11.07;;
10479;SDS011;12789;42.610;23.040;2023-03-24T09:01:18;17.35;;;9.90;;
10479;SDS011;12789;42.610;23.040;2023-03-24T09:07:04;21.13;;;10.07;;
10479;SDS011;12789;42.610;23.040;2023-03-24T09:12:29;19.15;;;9.40;;
10479;SDS011;12789;42.610;23.040;2023-03-24T09:15:18;20.50;;;8.63;;
10479;SDS011;12789;42.610;23.040;2023-03-24T09:17:52;17.23;;;8.57;;
10479;SDS011;12789;42.610;23.040;2023-03-24T09:21:18;18.30;;;9.40;;
10479;SDS011;12789;42.610;23.040;2023-03-24T09:23:50;11.70;;;7.20;;
10479;SDS011;12789;42.610;23.040;2023-03-24T09:26:28;16.98;;;7.20;;
10479;SDS011;12789;42.610;23.040;2023-03-24T09:29:07;11.35;;;6.88;;
10479;SDS011;12789;42.610;23.040;2023-03-24T09:31:47;14.25;;;7.75;;
10479;SDS011;12789;42.610;23.040;2023-03-24T09:37:28;9.77;;;5.07;;
10479;SDS011;12789;42.610;23.040;2023-03-24T09:40:17;8.80;;;5.78;;
10479;SDS011;12789;42.610;23.040;2023-03-24T09:43:22;7.22;;;5.70;;
10479;SDS011;12789;42.610;23.040;2023-03-24T09:46:10;9.45;;;6.03;;
10479;SDS011;12789;42.610;23.040;2023-03-24T09:48:48;6.47;;;5.07;;
10479;SDS011;12789;42.610;23.040;2023-03-24T09:51:35;8.52;;;5.15;;
10479;SDS011;12789;42.610;23.040;2023-03-24T09:54:21;6.57;;;5.30;;
10479;SDS011;12789;42.610;23.040;2023-03-24T10:00:04;8.75;;;5.15;;
10479;SDS011;12789;42.610;23.040;2023-03-24T10:02:38;10.93;;;6.43;;
10479;SDS011;12789;42.610;23.040;2023-03-24T10:05:13;12.30;;;5.88;;
10479;SDS011;12789;42.610;23.040;2023-03-24T10:07:56;8.68;;;5.07;;
10479;SDS011;12789;42.610;23.040;2023-03-24T10:10:32;5.68;;;4.93;;
10479;SDS011;12789;42.610;23.040;2023-03-24T10:13:19;7.40;;;4.32;;
10479;SDS011;12789;42.610;23.040;2023-03-24T10:15:58;4.50;;;4.10;;
10479;SDS011;12789;42.610;23.040;2023-03-24T10:19:03;10.00;;;4.82;;
10479;SDS011;12789;42.610;23.040;2023-03-24T10:21:59;6.97;;;4.25;;
10479;SDS011;12789;42.610;23.040;2023-03-24T10:25:10;7.78;;;5.40;;
10479;SDS011;12789;42.610;23.040;2023-03-24T10:28:40;5.05;;;4.03;;
10479;SDS011;12789;42.610;23.040;2023-03-24T10:34:31;5.95;;;3.90;;
10479;SDS011;12789;42.610;23.040;2023-03-24T10:37:08;4.80;;;3.45;;
10479;SDS011;12789;42.610;23.040;2023-03-24T10:39:42;3.88;;;3.28;;
10479;SDS011;12789;42.610;23.040;2023-03-24T10:42:54;4.55;;;3.58;;
10479;SDS011;12789;42.610;23.040;2023-03-24T10:45:31;5.65;;;3.33;;
10479;SDS011;12789;42.610;23.040;2023-03-24T10:48:32;6.53;;;3.42;;
10479;SDS011;12789;42.610;23.040;2023-03-24T10:54:21;6.75;;;3.17;;
10479;SDS011;12789;42.610;23.040;2023-03-24T11:00:20;3.95;;;3.03;;
10479;SDS011;12789;42.610;23.040;2023-03-24T11:03:20;3.28;;;2.97;;
10479;SDS011;12789;42.610;23.040;2023-03-24T11:05:49;3.38;;;2.92;;
10479;SDS011;12789;42.610;23.040;2023-03-24T11:08:24;4.78;;;3.83;;
10479;SDS011;12789;42.610;23.040;2023-03-24T11:13:35;5.28;;;3.30;;
10479;SDS011;12789;42.610;23.040;2023-03-24T11:16:12;3.85;;;3.03;;
10479;SDS011;12789;42.610;23.040;2023-03-24T11:18:53;4.63;;;2.90;;
10479;SDS011;12789;42.610;23.040;2023-03-24T11:21:22;4.70;;;3.05;;
10479;SDS011;12789;42.610;23.040;2023-03-24T11:23:50;3.03;;;2.70;;
10479;SDS011;12789;42.610;23.040;2023-03-24T11:26:26;2.38;;;2.10;;
10479;SDS011;12789;42.610;23.040;2023-03-24T11:28:55;2.00;;;1.80;;
10479;SDS011;12789;42.610;23.040;2023-03-24T11:31:26;3.15;;;2.40;;
10479;SDS011;12789;42.610;23.040;2023-03-24T11:33:56;2.40;;;2.10;;
10479;SDS011;12789;42.610;23.040;2023-03-24T11:36:37;1.83;;;1.70;;
10479;SDS011;12789;42.610;23.040;2023-03-24T11:39:11;2.13;;;1.92;;
10479;SDS011;12789;42.610;23.040;2023-03-24T11:41:49;2.53;;;2.22;;
10479;SDS011;12789;42.610;23.040;2023-03-24T11:44:21;4.38;;;2.15;;
10479;SDS011;12789;42.610;23.040;2023-03-24T11:46:55;4.07;;;1.88;;
10479;SDS011;12789;42.610;23.040;2023-03-24T11:49:31;7.82;;;2.50;;
10479;SDS011;12789;42.610;23.040;2023-03-24T11:52:44;4.63;;;2.10;;
10479;SDS011;12789;42.610;23.040;2023-03-24T11:55:12;2.22;;;2.10;;
10479;SDS011;12789;42.610;23.040;2023-03-24T11:57:45;1.90;;;1.77;;
10479;SDS011;12789;42.610;23.040;2023-03-24T12:00:14;1.88;;;1.77;;
10479;SDS011;12789;42.610;23.040;2023-03-24T12:02:52;4.20;;;2.58;;
10479;SDS011;12789;42.610;23.040;2023-03-24T12:05:22;3.22;;;2.10;;
10479;SDS011;12789;42.610;23.040;2023-03-24T12:08:04;5.15;;;2.42;;
10479;SDS011;12789;42.610;23.040;2023-03-24T12:10:40;2.80;;;2.00;;
10479;SDS011;12789;42.610;23.040;2023-03-24T12:13:13;1.85;;;1.75;;
10479;SDS011;12789;42.610;23.040;2023-03-24T12:18:34;1.85;;;1.75;;
10479;SDS011;12789;42.610;23.040;2023-03-24T12:21:05;2.90;;;2.00;;
10479;SDS011;12789;42.610;23.040;2023-03-24T12:23:37;4.80;;;2.38;;
10479;SDS011;12789;42.610;23.040;2023-03-24T12:26:07;2.83;;;2.05;;
10479;SDS011;12789;42.610;23.040;2023-03-24T12:28:51;2.25;;;2.00;;
10479;SDS011;12789;42.610;23.040;2023-03-24T12:31:31;2.10;;;2.00;;
10479;SDS011;12789;42.610;23.040;2023-03-24T12:34:02;3.75;;;3.45;;
10479;SDS011;12789;42.610;23.040;2023-03-24T12:36:40;3.33;;;2.58;;
10479;SDS011;12789;42.610;23.040;2023-03-24T12:39:13;5.65;;;2.00;;
10479;SDS011;12789;42.610;23.040;2023-03-24T12:41:50;3.63;;;2.28;;
10479;SDS011;12789;42.610;23.040;2023-03-24T12:44:30;2.30;;;2.10;;
10479;SDS011;12789;42.610;23.040;2023-03-24T12:47:05;2.33;;;1.92;;
10479;SDS011;12789;42.610;23.040;2023-03-24T12:49:45;7.10;;;5.15;;
10479;SDS011;12789;42.610;23.040;2023-03-24T12:52:31;3.85;;;2.33;;
10479;SDS011;12789;42.610;23.040;2023-03-24T12:55:02;3.70;;;2.67;;
10479;SDS011;12789;42.610;23.040;2023-03-24T12:57:35;4.05;;;2.25;;
10479;SDS011;12789;42.610;23.040;2023-03-24T13:00:08;2.00;;;1.90;;
10479;SDS011;12789;42.610;23.040;2023-03-24T13:02:38;3.85;;;2.65;;
10479;SDS011;12789;42.610;23.040;2023-03-24T13:05:13;8.43;;;2.13;;
10479;SDS011;12789;42.610;23.040;2023-03-24T13:07:41;3.53;;;2.28;;
10479;SDS011;12789;42.610;23.040;2023-03-24T13:10:13;3.38;;;2.20;;
10479;SDS011;12789;42.610;23.040;2023-03-24T13:12:44;3.15;;;2.25;;
10479;SDS011;12789;42.610;23.040;2023-03-24T13:15:16;11.85;;;6.70;;
10479;SDS011;12789;42.610;23.040;2023-03-24T13:17:47;4.10;;;2.95;;
10479;SDS011;12789;42.610;23.040;2023-03-24T13:20:16;3.55;;;3.25;;
10479;SDS011;12789;42.610;23.040;2023-03-24T13:22:46;2.78;;;2.58;;
10479;SDS011;12789;42.610;23.040;2023-03-24T13:25:18;5.18;;;4.65;;
10479;SDS011;12789;42.610;23.040;2023-03-24T13:27:46;2.28;;;2.08;;
10479;SDS011;12789;42.610;23.040;2023-03-24T13:30:26;2.60;;;2.25;;
10479;SDS011;12789;42.610;23.040;2023-03-24T13:32:57;3.17;;;2.30;;
10479;SDS011;12789;42.610;23.040;2023-03-24T13:35:29;3.00;;;2.70;;
10479;SDS011;12789;42.610;23.040;2023-03-24T13:38:00;10.15;;;5.82;;
10479;SDS011;12789;42.610;23.040;2023-03-24T13:40:30;4.07;;;2.20;;
10479;SDS011;12789;42.610;23.040;2023-03-24T13:43:05;2.53;;;2.17;;
10479;SDS011;12789;42.610;23.040;2023-03-24T13:45:44;4.55;;;3.95;;
10479;SDS011;12789;42.610;23.040;2023-03-24T13:48:26;2.67;;;2.47;;
10479;SDS011;12789;42.610;23.040;2023-03-24T13:50:58;3.20;;;2.40;;
10479;SDS011;12789;42.610;23.040;2023-03-24T13:53:29;2.30;;;2.20;;
10479;SDS011;12789;42.610;23.040;2023-03-24T13:55:59;4.68;;;2.13;;
10479;SDS011;12789;42.610;23.040;2023-03-24T13:58:43;2.30;;;2.10;;
10479;SDS011;12789;42.610;23.040;2023-03-24T14:04:18;3.95;;;2.28;;
10479;SDS011;12789;42.610;23.040;2023-03-24T14:06:46;2.72;;;2.53;;
10479;SDS011;12789;42.610;23.040;2023-03-24T14:09:30;11.00;;;6.60;;
10479;SDS011;12789;42.610;23.040;2023-03-24T14:12:18;13.02;;;8.85;;
10479;SDS011;12789;42.610;23.040;2023-03-24T14:17:46;22.70;;;12.35;;
10479;SDS011;12789;42.610;23.040;2023-03-24T14:20:27;11.75;;;8.10;;
10479;SDS011;12789;42.610;23.040;2023-03-24T14:23:04;5.18;;;3.10;;
10479;SDS011;12789;42.610;23.040;2023-03-24T14:25:32;6.85;;;3.33;;
10479;SDS011;12789;42.610;23.040;2023-03-24T14:28:16;13.95;;;5.80;;
10479;SDS011;12789;42.610;23.040;2023-03-24T14:33:38;7.35;;;3.00;;
10479;SDS011;12789;42.610;23.040;2023-03-24T14:36:07;3.17;;;2.88;;
10479;SDS011;12789;42.610;23.040;2023-03-24T14:38:41;8.25;;;2.90;;
10479;SDS011;12789;42.610;23.040;2023-03-24T14:41:13;8.43;;;2.78;;
10479;SDS011;12789;42.610;23.040;2023-03-24T14:43:51;7.93;;;2.55;;
10479;SDS011;12789;42.610;23.040;2023-03-24T14:46:34;5.32;;;2.90;;
10479;SDS011;12789;42.610;23.040;2023-03-24T14:49:04;3.15;;;2.50;;
10479;SDS011;12789;42.610;23.040;2023-03-24T14:51:38;7.93;;;2.80;;
10479;SDS011;12789;42.610;23.040;2023-03-24T14:54:12;10.45;;;2.75;;
10479;SDS011;12789;42.610;23.040;2023-03-24T14:56:41;6.72;;;2.72;;
10479;SDS011;12789;42.610;23.040;2023-03-24T14:59:10;11.60;;;3.08;;
10479;SDS011;12789;42.610;23.040;2023-03-24T15:01:43;3.72;;;2.50;;
10479;SDS011;12789;42.610;23.040;2023-03-24T15:04:13;2.45;;;2.25;;
10479;SDS011;12789;42.610;23.040;2023-03-24T15:06:45;7.97;;;2.60;;
10479;SDS011;12789;42.610;23.040;2023-03-24T15:09:17;2.45;;;2.25;;
10479;SDS011;12789;42.610;23.040;2023-03-24T15:11:52;4.07;;;2.72;;
10479;SDS011;12789;42.610;23.040;2023-03-24T15:14:24;5.15;;;2.40;;
10479;SDS011;12789;42.610;23.040;2023-03-24T15:17:04;4.32;;;2.20;;
10479;SDS011;12789;42.610;23.040;2023-03-24T15:19:33;7.85;;;2.80;;
10479;SDS011;12789;42.610;23.040;2023-03-24T15:22:03;4.40;;;2.90;;
10479;SDS011;12789;42.610;23.040;2023-03-24T15:24:45;8.25;;;4.93;;
10479;SDS011;12789;42.610;23.040;2023-03-24T15:27:20;5.70;;;3.92;;
10479;SDS011;12789;42.610;23.040;2023-03-24T15:29:54;41.22;;;26.10;;
10479;SDS011;12789;42.610;23.040;2023-03-24T15:32:23;26.13;;;12.43;;
10479;SDS011;12789;42.610;23.040;2023-03-24T15:34:54;16.58;;;10.13;;
10479;SDS011;12789;42.610;23.040;2023-03-24T15:37:30;18.10;;;6.85;;
10479;SDS011;12789;42.610;23.040;2023-03-24T15:39:58;6.43;;;3.22;;
10479;SDS011;12789;42.610;23.040;2023-03-24T15:42:29;5.72;;;3.40;;
10479;SDS011;12789;42.610;23.040;2023-03-24T15:45:04;6.55;;;2.50;;